SWR8CM EHAM-LSZH
Flight info
| Callsign | SWR8CM |
|---|---|
| Flight time | 1h 3m |
| Altitude | 35000 |
| Route | LOPIK N852 LNO DCT DEMUL DCT SUTAL DCT GTQ DCT BAMEV DCT BLM |
| Aircraft | A320/M-SDE2E3FGIJ1RWXY/LB1 |
Departure
| Time | 2026-05-06 19:20 |
|---|---|
| Airport | Amsterdam Airport Schiphol (EHAM) |
Arrival
| Time | 2026-05-06 20:23 |
|---|---|
| Airport | Zürich Airport (LSZH) |
| Time | Latitude | Longitude | Altitude | Speed | Heading |
|---|---|---|---|---|---|
| 2026-05-06 18:43 | 52.30442 | 4.76321 | -1 ft | 0 kts | 238° |
| 2026-05-06 19:08 | 52.30445 | 4.76329 | -1 ft | 4 kts | 238° |
| 2026-05-06 19:09 | 52.30459 | 4.76367 | -1 ft | 4 kts | 231° |
| 2026-05-06 19:09 | 52.30475 | 4.76387 | -1 ft | 3 kts | 163° |
| 2026-05-06 19:09 | 52.30478 | 4.76386 | -1 ft | 1 kts | 159° |
| 2026-05-06 19:11 | 52.30477 | 4.76387 | -1 ft | 1 kts | 158° |
| 2026-05-06 19:11 | 52.30461 | 4.76407 | -1 ft | 5 kts | 141° |
| 2026-05-06 19:11 | 52.30418 | 4.76454 | -1 ft | 10 kts | 147° |
| 2026-05-06 19:11 | 52.30348 | 4.76525 | -1 ft | 14 kts | 151° |
| 2026-05-06 19:12 | 52.30269 | 4.76457 | -1 ft | 16 kts | 239° |
| 2026-05-06 19:12 | 52.30208 | 4.76294 | -1 ft | 18 kts | 238° |
| 2026-05-06 19:12 | 52.30139 | 4.76112 | -1 ft | 20 kts | 238° |
| 2026-05-06 19:12 | 52.30061 | 4.75912 | -1 ft | 22 kts | 238° |
| 2026-05-06 19:13 | 52.29979 | 4.75696 | -1 ft | 23 kts | 237° |
| 2026-05-06 19:13 | 52.29890 | 4.75464 | -1 ft | 25 kts | 237° |
| 2026-05-06 19:13 | 52.29835 | 4.75232 | -1 ft | 22 kts | 282° |
| 2026-05-06 19:13 | 52.29928 | 4.75035 | -1 ft | 23 kts | 311° |
| 2026-05-06 19:14 | 52.30034 | 4.74840 | -1 ft | 23 kts | 311° |
| 2026-05-06 19:14 | 52.30103 | 4.74712 | 4 ft | 21 kts | 311° |
| 2026-05-06 19:14 | 52.30190 | 4.74551 | 10 ft | 19 kts | 312° |
| 2026-05-06 19:14 | 52.30278 | 4.74386 | 11 ft | 18 kts | 310° |
| 2026-05-06 19:15 | 52.30359 | 4.74228 | -1 ft | 15 kts | 309° |
| 2026-05-06 19:15 | 52.30353 | 4.74087 | -1 ft | 10 kts | 234° |
| 2026-05-06 19:15 | 52.30317 | 4.74032 | -1 ft | 8 kts | 217° |
| 2026-05-06 19:15 | 52.30308 | 4.74022 | -1 ft | 0 kts | 216° |
| 2026-05-06 19:17 | 52.30296 | 4.74007 | -1 ft | 6 kts | 216° |
| 2026-05-06 19:17 | 52.30265 | 4.73968 | -1 ft | 5 kts | 217° |
| 2026-05-06 19:17 | 52.30236 | 4.73933 | -1 ft | 4 kts | 217° |
| 2026-05-06 19:18 | 52.30229 | 4.73924 | -1 ft | 1 kts | 217° |
| 2026-05-06 19:18 | 52.30222 | 4.73916 | -1 ft | 2 kts | 217° |
| 2026-05-06 19:18 | 52.30221 | 4.73915 | -1 ft | 0 kts | 217° |
| 2026-05-06 19:18 | 52.30215 | 4.73906 | -1 ft | 6 kts | 218° |
| 2026-05-06 19:19 | 52.30189 | 4.73842 | -2 ft | 7 kts | 257° |
| 2026-05-06 19:19 | 52.30191 | 4.73768 | -2 ft | 7 kts | 276° |
| 2026-05-06 19:19 | 52.30217 | 4.73739 | -3 ft | 5 kts | 2° |
| 2026-05-06 19:19 | 52.30223 | 4.73740 | -3 ft | 0 kts | 6° |
| 2026-05-06 19:20 | 52.30325 | 4.73750 | -4 ft | 48 kts | 3° |
| 2026-05-06 19:20 | 52.30902 | 4.73802 | -1 ft | 116 kts | 3° |
| 2026-05-06 19:20 | 52.31888 | 4.73891 | 104 ft | 157 kts | 4° |
| 2026-05-06 19:20 | 52.32954 | 4.74081 | 869 ft | 154 kts | 18° |
| 2026-05-06 19:21 | 52.33975 | 4.74622 | 1592 ft | 161 kts | 21° |
| 2026-05-06 19:21 | 52.35104 | 4.75286 | 2006 ft | 184 kts | 22° |
| 2026-05-06 19:21 | 52.36397 | 4.76086 | 2432 ft | 211 kts | 26° |
| 2026-05-06 19:21 | 52.37544 | 4.77573 | 3254 ft | 215 kts | 59° |
| 2026-05-06 19:22 | 52.37852 | 4.79967 | 4218 ft | 222 kts | 91° |
| 2026-05-06 19:22 | 52.37493 | 4.82455 | 5108 ft | 231 kts | 116° |
| 2026-05-06 19:22 | 52.36339 | 4.84357 | 5748 ft | 245 kts | 149° |
| 2026-05-06 19:22 | 52.34611 | 4.85089 | 5919 ft | 273 kts | 178° |
| 2026-05-06 19:23 | 52.32681 | 4.85025 | 5974 ft | 281 kts | 180° |
| 2026-05-06 19:23 | 52.30706 | 4.84946 | 6763 ft | 284 kts | 180° |
| 2026-05-06 19:23 | 52.28723 | 4.84878 | 7756 ft | 287 kts | 180° |
| 2026-05-06 19:23 | 52.26727 | 4.85177 | 8687 ft | 290 kts | 167° |
| 2026-05-06 19:24 | 52.24815 | 4.86277 | 9644 ft | 294 kts | 153° |
| 2026-05-06 19:24 | 52.23095 | 4.88124 | 10408 ft | 303 kts | 142° |
| 2026-05-06 19:24 | 52.21379 | 4.90350 | 10735 ft | 327 kts | 141° |
| 2026-05-06 19:24 | 52.19535 | 4.92721 | 11153 ft | 345 kts | 145° |
| 2026-05-06 19:25 | 52.17365 | 4.94455 | 11841 ft | 352 kts | 162° |
| 2026-05-06 19:25 | 52.15009 | 4.95712 | 12721 ft | 354 kts | 163° |
| 2026-05-06 19:25 | 52.12675 | 4.96927 | 13549 ft | 357 kts | 163° |
| 2026-05-06 19:25 | 52.10293 | 4.98153 | 14277 ft | 361 kts | 163° |
| 2026-05-06 19:26 | 52.07885 | 4.99391 | 14992 ft | 365 kts | 163° |
| 2026-05-06 19:26 | 52.05455 | 5.00645 | 15708 ft | 368 kts | 163° |
| 2026-05-06 19:26 | 52.03003 | 5.01911 | 16420 ft | 371 kts | 163° |
| 2026-05-06 19:26 | 52.00533 | 5.03188 | 17129 ft | 374 kts | 163° |
| 2026-05-06 19:27 | 51.98042 | 5.04478 | 17823 ft | 378 kts | 163° |
| 2026-05-06 19:27 | 51.95527 | 5.05778 | 18470 ft | 381 kts | 164° |
| 2026-05-06 19:27 | 51.93023 | 5.07064 | 19074 ft | 384 kts | 163° |
| 2026-05-06 19:27 | 51.90489 | 5.08363 | 19667 ft | 388 kts | 164° |
| 2026-05-06 19:28 | 51.87909 | 5.09683 | 20278 ft | 390 kts | 164° |
| 2026-05-06 19:28 | 51.85309 | 5.11012 | 20906 ft | 393 kts | 164° |
| 2026-05-06 19:28 | 51.82695 | 5.12362 | 21535 ft | 396 kts | 163° |
| 2026-05-06 19:28 | 51.80078 | 5.13814 | 22147 ft | 399 kts | 162° |
| 2026-05-06 19:29 | 51.77463 | 5.15357 | 22743 ft | 402 kts | 161° |
| 2026-05-06 19:29 | 51.74835 | 5.16955 | 23331 ft | 405 kts | 161° |
| 2026-05-06 19:29 | 51.72193 | 5.18578 | 23833 ft | 408 kts | 161° |
| 2026-05-06 19:29 | 51.69533 | 5.20205 | 24313 ft | 410 kts | 161° |
| 2026-05-06 19:30 | 51.66855 | 5.21825 | 24760 ft | 412 kts | 161° |
| 2026-05-06 19:30 | 51.64160 | 5.23436 | 25213 ft | 414 kts | 161° |
| 2026-05-06 19:30 | 51.61447 | 5.25043 | 25658 ft | 416 kts | 161° |
| 2026-05-06 19:30 | 51.58720 | 5.26649 | 26095 ft | 418 kts | 161° |
| 2026-05-06 19:31 | 51.55983 | 5.28261 | 26519 ft | 421 kts | 161° |
| 2026-05-06 19:31 | 51.53228 | 5.29886 | 26933 ft | 423 kts | 161° |
| 2026-05-06 19:31 | 51.47683 | 5.33147 | 27790 ft | 426 kts | 161° |
| 2026-05-06 19:32 | 51.44896 | 5.34781 | 28192 ft | 428 kts | 161° |
| 2026-05-06 19:32 | 51.42096 | 5.36424 | 28606 ft | 429 kts | 161° |
| 2026-05-06 19:32 | 51.39311 | 5.38057 | 28976 ft | 431 kts | 161° |
| 2026-05-06 19:32 | 51.36462 | 5.39722 | 29351 ft | 433 kts | 161° |
| 2026-05-06 19:33 | 51.33627 | 5.41372 | 29716 ft | 435 kts | 161° |
| 2026-05-06 19:33 | 51.30811 | 5.43011 | 30021 ft | 437 kts | 161° |
| 2026-05-06 19:33 | 51.27913 | 5.44700 | 30296 ft | 439 kts | 161° |
| 2026-05-06 19:33 | 51.25077 | 5.46356 | 30556 ft | 441 kts | 161° |
| 2026-05-06 19:34 | 51.22194 | 5.48037 | 30808 ft | 443 kts | 161° |
| 2026-05-06 19:34 | 51.19289 | 5.49729 | 31034 ft | 445 kts | 161° |
| 2026-05-06 19:34 | 51.16373 | 5.51424 | 31245 ft | 448 kts | 161° |
| 2026-05-06 19:34 | 51.13448 | 5.53123 | 31549 ft | 447 kts | 161° |
| 2026-05-06 19:35 | 51.10522 | 5.54817 | 31878 ft | 447 kts | 161° |
| 2026-05-06 19:35 | 51.07597 | 5.56503 | 32202 ft | 447 kts | 161° |
| 2026-05-06 19:35 | 51.04678 | 5.58183 | 32524 ft | 447 kts | 161° |
| 2026-05-06 19:35 | 51.01759 | 5.59861 | 32838 ft | 446 kts | 161° |
| 2026-05-06 19:36 | 50.98836 | 5.61536 | 33169 ft | 446 kts | 161° |
| 2026-05-06 19:36 | 50.95918 | 5.63208 | 33490 ft | 446 kts | 161° |
| 2026-05-06 19:36 | 50.92999 | 5.64883 | 33820 ft | 446 kts | 161° |
| 2026-05-06 19:36 | 50.90086 | 5.66553 | 34123 ft | 445 kts | 161° |
| 2026-05-06 19:37 | 50.87181 | 5.68221 | 34420 ft | 444 kts | 161° |
| 2026-05-06 19:37 | 50.84280 | 5.69884 | 34690 ft | 444 kts | 161° |
| 2026-05-06 19:37 | 50.81378 | 5.71541 | 34875 ft | 444 kts | 162° |
| 2026-05-06 19:37 | 50.78476 | 5.73192 | 34925 ft | 442 kts | 162° |
| 2026-05-06 19:38 | 50.72711 | 5.76469 | 34922 ft | 440 kts | 161° |
| 2026-05-06 19:38 | 50.66960 | 5.79734 | 34919 ft | 439 kts | 161° |
| 2026-05-06 19:39 | 50.61207 | 5.82988 | 34918 ft | 439 kts | 161° |
| 2026-05-06 19:39 | 50.55455 | 5.86236 | 34917 ft | 439 kts | 161° |
| 2026-05-06 19:40 | 50.49701 | 5.89473 | 34915 ft | 439 kts | 161° |
| 2026-05-06 19:40 | 50.43941 | 5.92708 | 34913 ft | 440 kts | 161° |
| 2026-05-06 19:41 | 50.38179 | 5.95932 | 34905 ft | 440 kts | 161° |
| 2026-05-06 19:41 | 50.32407 | 5.99155 | 34900 ft | 440 kts | 161° |
| 2026-05-06 19:42 | 50.26640 | 6.02376 | 34900 ft | 440 kts | 161° |
| 2026-05-06 19:42 | 50.20878 | 6.05588 | 34909 ft | 439 kts | 162° |
| 2026-05-06 19:43 | 50.15127 | 6.08780 | 34900 ft | 439 kts | 162° |
| 2026-05-06 19:43 | 50.09374 | 6.11954 | 34902 ft | 438 kts | 162° |
| 2026-05-06 19:44 | 50.03620 | 6.15116 | 34905 ft | 438 kts | 162° |
| 2026-05-06 19:44 | 49.97873 | 6.18275 | 34906 ft | 438 kts | 162° |
| 2026-05-06 19:45 | 49.92162 | 6.21401 | 34894 ft | 438 kts | 162° |
| 2026-05-06 19:45 | 49.86421 | 6.24537 | 34896 ft | 437 kts | 162° |
| 2026-05-06 19:46 | 49.80688 | 6.27670 | 34894 ft | 437 kts | 162° |
| 2026-05-06 19:46 | 49.74979 | 6.30782 | 34890 ft | 436 kts | 162° |
| 2026-05-06 19:47 | 49.69247 | 6.33889 | 34884 ft | 436 kts | 162° |
| 2026-05-06 19:47 | 49.63531 | 6.36996 | 34886 ft | 436 kts | 162° |
| 2026-05-06 19:48 | 49.57826 | 6.40093 | 34883 ft | 435 kts | 162° |
| 2026-05-06 19:48 | 49.52105 | 6.43173 | 34882 ft | 435 kts | 162° |
| 2026-05-06 19:49 | 49.46395 | 6.46239 | 34878 ft | 435 kts | 162° |
| 2026-05-06 19:49 | 49.40726 | 6.49273 | 34879 ft | 435 kts | 162° |
| 2026-05-06 19:50 | 49.35010 | 6.52331 | 34877 ft | 435 kts | 162° |
| 2026-05-06 19:50 | 49.29293 | 6.55397 | 34877 ft | 435 kts | 162° |
| 2026-05-06 19:51 | 49.23573 | 6.58447 | 34882 ft | 435 kts | 162° |
| 2026-05-06 19:51 | 49.17846 | 6.61491 | 34880 ft | 436 kts | 162° |
| 2026-05-06 19:52 | 49.12124 | 6.64526 | 34873 ft | 435 kts | 162° |
| 2026-05-06 19:52 | 49.06409 | 6.67545 | 34883 ft | 434 kts | 162° |
| 2026-05-06 19:53 | 49.00697 | 6.70549 | 34878 ft | 434 kts | 162° |
| 2026-05-06 19:53 | 48.95038 | 6.73623 | 34884 ft | 435 kts | 160° |
| 2026-05-06 19:54 | 48.89412 | 6.77002 | 34885 ft | 435 kts | 159° |
| 2026-05-06 19:54 | 48.83804 | 6.80429 | 34885 ft | 435 kts | 160° |
| 2026-05-06 19:55 | 48.78171 | 6.83793 | 34879 ft | 435 kts | 160° |
| 2026-05-06 19:55 | 48.72531 | 6.87105 | 34881 ft | 435 kts | 160° |
| 2026-05-06 19:56 | 48.66880 | 6.90409 | 34887 ft | 436 kts | 160° |
| 2026-05-06 19:56 | 48.61230 | 6.93719 | 34887 ft | 436 kts | 160° |
| 2026-05-06 19:57 | 48.55578 | 6.97023 | 34882 ft | 435 kts | 160° |
| 2026-05-06 19:57 | 48.49932 | 7.00324 | 34891 ft | 435 kts | 160° |
| 2026-05-06 19:58 | 48.44299 | 7.03608 | 34892 ft | 434 kts | 160° |
| 2026-05-06 19:58 | 48.38660 | 7.06888 | 34894 ft | 434 kts | 161° |
| 2026-05-06 19:59 | 48.33015 | 7.10161 | 34892 ft | 435 kts | 161° |
| 2026-05-06 19:59 | 48.27362 | 7.13427 | 34326 ft | 437 kts | 161° |
| 2026-05-06 20:00 | 48.24507 | 7.15072 | 33290 ft | 442 kts | 160° |
| 2026-05-06 20:00 | 48.21627 | 7.16730 | 32292 ft | 443 kts | 159° |
| 2026-05-06 20:00 | 48.18759 | 7.18385 | 31660 ft | 438 kts | 159° |
| 2026-05-06 20:00 | 48.15936 | 7.20014 | 31056 ft | 432 kts | 159° |
| 2026-05-06 20:01 | 48.13184 | 7.21600 | 30454 ft | 428 kts | 158° |
| 2026-05-06 20:01 | 48.10384 | 7.23210 | 29820 ft | 424 kts | 158° |
| 2026-05-06 20:01 | 48.07646 | 7.24782 | 29192 ft | 418 kts | 157° |
| 2026-05-06 20:01 | 48.04949 | 7.26324 | 28614 ft | 412 kts | 158° |
| 2026-05-06 20:02 | 48.02320 | 7.27821 | 28047 ft | 407 kts | 158° |
| 2026-05-06 20:02 | 47.99693 | 7.29315 | 27481 ft | 402 kts | 159° |
| 2026-05-06 20:02 | 47.97091 | 7.30798 | 26922 ft | 397 kts | 160° |
| 2026-05-06 20:02 | 47.94523 | 7.32265 | 26381 ft | 393 kts | 160° |
| 2026-05-06 20:03 | 47.91980 | 7.33716 | 25838 ft | 389 kts | 160° |
| 2026-05-06 20:03 | 47.89461 | 7.35150 | 25328 ft | 385 kts | 160° |
| 2026-05-06 20:03 | 47.86968 | 7.36566 | 24814 ft | 382 kts | 160° |
| 2026-05-06 20:03 | 47.84495 | 7.37969 | 24295 ft | 379 kts | 160° |
| 2026-05-06 20:04 | 47.82034 | 7.39363 | 23775 ft | 377 kts | 160° |
| 2026-05-06 20:04 | 47.80381 | 7.40296 | 23437 ft | 376 kts | 160° |
| 2026-05-06 20:04 | 47.77976 | 7.41653 | 22907 ft | 372 kts | 160° |
| 2026-05-06 20:04 | 47.75569 | 7.43013 | 22428 ft | 368 kts | 160° |
| 2026-05-06 20:05 | 47.73193 | 7.44358 | 21949 ft | 364 kts | 160° |
| 2026-05-06 20:05 | 47.70834 | 7.45693 | 21462 ft | 361 kts | 160° |
| 2026-05-06 20:05 | 47.68501 | 7.47012 | 20981 ft | 358 kts | 160° |
| 2026-05-06 20:05 | 47.66248 | 7.48562 | 20471 ft | 357 kts | 149° |
| 2026-05-06 20:06 | 47.64289 | 7.50803 | 19994 ft | 356 kts | 136° |
| 2026-05-06 20:06 | 47.62729 | 7.53656 | 19636 ft | 361 kts | 123° |
| 2026-05-06 20:06 | 47.61630 | 7.57021 | 19303 ft | 365 kts | 111° |
| 2026-05-06 20:06 | 47.60807 | 7.60571 | 18970 ft | 363 kts | 111° |
| 2026-05-06 20:07 | 47.59981 | 7.64104 | 18633 ft | 362 kts | 111° |
| 2026-05-06 20:07 | 47.59153 | 7.67618 | 18298 ft | 360 kts | 111° |
| 2026-05-06 20:07 | 47.58327 | 7.71115 | 17929 ft | 359 kts | 112° |
| 2026-05-06 20:07 | 47.57507 | 7.74602 | 17592 ft | 358 kts | 112° |
| 2026-05-06 20:08 | 47.56689 | 7.78081 | 17268 ft | 357 kts | 111° |
| 2026-05-06 20:08 | 47.55872 | 7.81551 | 16945 ft | 356 kts | 111° |
| 2026-05-06 20:08 | 47.55057 | 7.85006 | 16621 ft | 355 kts | 111° |
| 2026-05-06 20:08 | 47.54242 | 7.88456 | 16296 ft | 355 kts | 112° |
| 2026-05-06 20:09 | 47.53430 | 7.91892 | 15978 ft | 354 kts | 112° |
| 2026-05-06 20:09 | 47.52615 | 7.95327 | 15647 ft | 353 kts | 112° |
| 2026-05-06 20:09 | 47.51801 | 7.98751 | 15326 ft | 353 kts | 112° |
| 2026-05-06 20:09 | 47.50984 | 8.02171 | 15004 ft | 352 kts | 112° |
| 2026-05-06 20:10 | 47.50069 | 8.05509 | 14682 ft | 349 kts | 118° |
| 2026-05-06 20:10 | 47.49014 | 8.08744 | 14356 ft | 349 kts | 118° |
| 2026-05-06 20:10 | 47.47962 | 8.11971 | 14047 ft | 348 kts | 118° |
| 2026-05-06 20:10 | 47.46911 | 8.15190 | 13724 ft | 347 kts | 118° |
| 2026-05-06 20:11 | 47.45865 | 8.18401 | 13388 ft | 346 kts | 118° |
| 2026-05-06 20:11 | 47.44823 | 8.21598 | 13076 ft | 345 kts | 118° |
| 2026-05-06 20:11 | 47.43781 | 8.24791 | 12765 ft | 344 kts | 118° |
| 2026-05-06 20:11 | 47.42753 | 8.27934 | 12448 ft | 342 kts | 118° |
| 2026-05-06 20:12 | 47.41715 | 8.31095 | 12138 ft | 341 kts | 118° |
| 2026-05-06 20:12 | 47.40680 | 8.34238 | 11806 ft | 340 kts | 119° |
| 2026-05-06 20:12 | 47.39661 | 8.37333 | 11512 ft | 339 kts | 119° |
| 2026-05-06 20:12 | 47.38632 | 8.40455 | 11208 ft | 338 kts | 119° |
| 2026-05-06 20:13 | 47.37601 | 8.43573 | 10902 ft | 338 kts | 119° |
| 2026-05-06 20:13 | 47.36572 | 8.46675 | 10603 ft | 337 kts | 120° |
| 2026-05-06 20:13 | 47.35546 | 8.49770 | 10297 ft | 333 kts | 120° |
| 2026-05-06 20:13 | 47.34578 | 8.52797 | 10161 ft | 321 kts | 115° |
| 2026-05-06 20:14 | 47.34011 | 8.55930 | 9993 ft | 314 kts | 101° |
| 2026-05-06 20:14 | 47.33783 | 8.59106 | 9848 ft | 310 kts | 98° |
| 2026-05-06 20:14 | 47.33560 | 8.62267 | 9656 ft | 309 kts | 98° |
| 2026-05-06 20:14 | 47.33335 | 8.65408 | 9393 ft | 307 kts | 99° |
| 2026-05-06 20:15 | 47.33110 | 8.68525 | 9176 ft | 305 kts | 98° |
| 2026-05-06 20:15 | 47.32884 | 8.71641 | 8923 ft | 305 kts | 98° |
| 2026-05-06 20:15 | 47.32658 | 8.74748 | 8654 ft | 304 kts | 98° |
| 2026-05-06 20:15 | 47.32433 | 8.77834 | 8390 ft | 303 kts | 98° |
| 2026-05-06 20:16 | 47.32209 | 8.80920 | 8097 ft | 302 kts | 98° |
| 2026-05-06 20:16 | 47.32022 | 8.83999 | 7789 ft | 301 kts | 91° |
| 2026-05-06 20:16 | 47.32468 | 8.86980 | 7487 ft | 300 kts | 63° |
| 2026-05-06 20:16 | 47.33725 | 8.89385 | 7183 ft | 295 kts | 36° |
| 2026-05-06 20:17 | 47.35485 | 8.90746 | 6891 ft | 281 kts | 10° |
| 2026-05-06 20:17 | 47.37372 | 8.91064 | 6613 ft | 269 kts | 358° |
| 2026-05-06 20:17 | 47.39228 | 8.91215 | 6335 ft | 264 kts | 358° |
| 2026-05-06 20:17 | 47.41022 | 8.91231 | 6066 ft | 251 kts | 343° |
| 2026-05-06 20:18 | 47.42514 | 8.90182 | 5815 ft | 231 kts | 311° |
| 2026-05-06 20:18 | 47.43340 | 8.88287 | 5607 ft | 214 kts | 283° |
| 2026-05-06 20:18 | 47.43551 | 8.86195 | 5416 ft | 206 kts | 274° |
| 2026-05-06 20:18 | 47.43699 | 8.84125 | 5220 ft | 200 kts | 274° |
| 2026-05-06 20:19 | 47.43845 | 8.82125 | 5056 ft | 192 kts | 274° |
| 2026-05-06 20:19 | 47.43985 | 8.80218 | 4819 ft | 184 kts | 274° |
| 2026-05-06 20:19 | 47.44122 | 8.78369 | 4514 ft | 177 kts | 275° |
| 2026-05-06 20:19 | 47.44253 | 8.76604 | 4269 ft | 170 kts | 274° |
| 2026-05-06 20:20 | 47.44376 | 8.74910 | 4018 ft | 162 kts | 274° |
| 2026-05-06 20:20 | 47.44493 | 8.73287 | 3790 ft | 156 kts | 274° |
| 2026-05-06 20:20 | 47.44603 | 8.71755 | 3566 ft | 144 kts | 274° |
| 2026-05-06 20:20 | 47.44707 | 8.70330 | 3365 ft | 136 kts | 274° |
| 2026-05-06 20:21 | 47.44805 | 8.68975 | 3190 ft | 132 kts | 274° |
| 2026-05-06 20:21 | 47.44901 | 8.67639 | 2987 ft | 130 kts | 274° |
| 2026-05-06 20:21 | 47.44997 | 8.66313 | 2793 ft | 129 kts | 274° |
| 2026-05-06 20:21 | 47.45092 | 8.64992 | 2590 ft | 130 kts | 273° |
| 2026-05-06 20:22 | 47.45185 | 8.63666 | 2442 ft | 131 kts | 274° |
| 2026-05-06 20:22 | 47.45278 | 8.62309 | 2244 ft | 135 kts | 274° |
| 2026-05-06 20:22 | 47.45383 | 8.60936 | 2062 ft | 135 kts | 275° |
| 2026-05-06 20:22 | 47.45479 | 8.59571 | 1854 ft | 132 kts | 274° |
| 2026-05-06 20:23 | 47.45575 | 8.58219 | 1651 ft | 132 kts | 275° |
| 2026-05-06 20:23 | 47.45672 | 8.56873 | 1442 ft | 130 kts | 275° |
| 2026-05-06 20:23 | 47.45757 | 8.55682 | 1405 ft | 94 kts | 275° |
| 2026-05-06 20:23 | 47.45799 | 8.55081 | 1397 ft | 38 kts | 276° |
| 2026-05-06 20:24 | 47.45745 | 8.54865 | 1399 ft | 20 kts | 182° |
| 2026-05-06 20:24 | 47.45613 | 8.54942 | 1403 ft | 21 kts | 154° |
| 2026-05-06 20:24 | 47.45484 | 8.55054 | 1397 ft | 22 kts | 137° |
| 2026-05-06 20:24 | 47.45399 | 8.55234 | 1405 ft | 20 kts | 119° |
| 2026-05-06 20:25 | 47.45378 | 8.55375 | 1403 ft | 12 kts | 68° |
| 2026-05-06 20:25 | 47.45409 | 8.55462 | 1406 ft | 7 kts | 44° |
| 2026-05-06 20:25 | 47.45477 | 8.55443 | 1406 ft | 14 kts | 344° |
| 2026-05-06 20:25 | 47.45524 | 8.55521 | 1406 ft | 10 kts | 95° |
| 2026-05-06 20:26 | 47.45518 | 8.55609 | 1407 ft | 7 kts | 96° |
| 2026-05-06 20:26 | 47.45482 | 8.55643 | 1411 ft | 9 kts | 184° |
| 2026-05-06 20:26 | 47.45439 | 8.55636 | 1407 ft | 2 kts | 186° |
| 2026-05-06 20:26 | 47.45432 | 8.55634 | 1407 ft | 0 kts | 186° |